Apalachia Observed Data For Previous 48 Hours

Caption
Day and Hour Reservoir Elevation (behind dam)* Tailwater Elevation (below dam)* Average Hourly Discharge*
3/23/2017 2 AM EDT 1,277.35 837.61 748
3/23/2017 3 AM EDT 1,277.37 837.56 0
3/23/2017 4 AM EDT 1,277.41 837.55 0
3/23/2017 5 AM EDT 1,277.40 837.56 1
3/23/2017 6 AM EDT 1,277.32 837.60 738
3/23/2017 7 AM EDT 1,277.32 838.58 90
3/23/2017 8 AM EDT 1,277.50 839.52 1,413
3/23/2017 9 AM EDT 1,277.75 839.52 1,414
3/23/2017 10 AM EDT 1,277.79 839.51 1,413
3/23/2017 11 AM EDT 1,277.80 837.52 45
3/23/2017 12 PM EDT 1,277.62 837.51 0
3/23/2017 1 PM EDT 1,277.69 837.53 1
3/23/2017 2 PM EDT 1,277.69 837.56 736
3/23/2017 3 PM EDT 1,277.70 837.50 0
3/23/2017 4 PM EDT 1,277.63 837.49 0
3/23/2017 5 PM EDT 1,277.67 837.62 6
3/23/2017 6 PM EDT 1,277.62 837.55 747
3/23/2017 7 PM EDT 1,277.57 837.48 0
3/23/2017 8 PM EDT 1,277.60 837.48 0
3/23/2017 9 PM EDT 1,277.63 837.60 5
3/23/2017 10 PM EDT 1,277.54 837.54 746
3/23/2017 11 PM EDT 1,277.53 837.48 0
3/24/2017 12 AM EDT 1,277.59 837.47 0
3/24/2017 1 AM EDT 1,277.59 837.48 1
3/24/2017 2 AM EDT 1,277.51 837.53 738
3/24/2017 3 AM EDT 1,277.51 837.47 0
3/24/2017 4 AM EDT 1,277.56 837.46 0
3/24/2017 5 AM EDT 1,277.54 837.48 1
3/24/2017 6 AM EDT 1,277.45 837.53 733
3/24/2017 7 AM EDT 1,277.48 837.46 0
3/24/2017 8 AM EDT 1,277.58 837.46 0
3/24/2017 9 AM EDT 1,278.02 837.79 19
3/24/2017 10 AM EDT 1,277.90 837.52 727
3/24/2017 11 AM EDT 1,277.90 837.46 0
3/24/2017 12 PM EDT 1,277.86 837.45 0
3/24/2017 1 PM EDT 1,277.95 837.61 6
3/24/2017 2 PM EDT 1,277.86 837.52 745
3/24/2017 3 PM EDT 1,277.83 837.45 0
3/24/2017 4 PM EDT 1,277.90 837.45 0
3/24/2017 5 PM EDT 1,277.86 837.77 17
3/24/2017 6 PM EDT 1,277.80 837.51 730
3/24/2017 7 PM EDT 1,277.80 837.45 0
3/24/2017 8 PM EDT 1,277.85 837.44 0
3/24/2017 9 PM EDT 1,277.83 837.57 6
3/24/2017 10 PM EDT 1,277.72 839.50 1,409
3/24/2017 11 PM EDT 1,277.64 839.50 1,418
3/25/2017 12 AM EDT 1,277.57 839.49 1,418
3/25/2017 1 AM EDT 1,277.54 837.58 48
3/25/2017 2 AM EDT 1,277.50 837.44 35

Elevations are in feet above sea level. Discharges are in cubic feet per second and are reported at the end of the hour.